Medi Baltimore — ICLW — position and weather

sailwx.info

Track history (hours):
 
Tides and Currents Weather Stations Pressure Air Temp Water Temp Dewpoint Dewpoint Depression Visibility Wind Speed Wind Dir Waves Ship Positions

Medi Baltimore

Last reported at 2016-May-27 08:33 UTC. Time now 2016-Jul-29 04:00 UTC.
Position N 22°07' E 114°19'.
Warning: this ship's position is months out of date.

Length 225 m; draft 6.5 m.

Type: Cargo ship. MMSI: 247255300.

Date/timePositionNaut miles runAvg speedWind from/ knotsBaromVisibWave heightAir tempDewpointWater temp
2016-May-27 08:33N 22°07' E 114°19'1510.4
2016-May-27 07:04N 22°17' E 114°06'610.0
2016-May-27 06:30N 22°21' E 114°03'9 9.8
2016-May-27 05:33N 22°24' E 113°53'4 3.9
2016-May-27 04:33N 22°28' E 113°54'0 0.0
2016-May-25 15:30N 22°28' E 113°54'0 0.0
2016-May-25 14:31N 22°28' E 113°54'0 0.0
2016-May-25 13:30N 22°28' E 113°54'0 0.0
2016-May-25 12:19N 22°28' E 113°54'0 0.0
2016-May-25 11:25N 22°28' E 113°54'0 0.0
2016-May-25 10:30N 22°28' E 113°54'0 0.0
2016-May-25 09:18N 22°28' E 113°54'0 0.0
2016-May-25 08:31N 22°28' E 113°54'0 0.0
2016-May-25 07:31N 22°28' E 113°54'0 0.0
2016-May-25 06:30N 22°28' E 113°54'0 0.0
2016-May-25 05:30N 22°28' E 113°54'0 0.0
2016-May-25 04:30N 22°28' E 113°54'0 0.0
2016-May-25 03:31N 22°28' E 113°54'0 0.0
2016-May-25 02:25N 22°28' E 113°54'0 0.0
2016-May-25 01:18N 22°28' E 113°54'0 0.0
2016-May-24 23:30N 22°28' E 113°54'0 0.0
2016-May-24 22:30N 22°28' E 113°54'0 0.0
2016-May-24 21:24N 22°28' E 113°54'0 0.0
2016-May-24 20:30N 22°28' E 113°54'0 0.0
2016-May-24 19:24N 22°28' E 113°54'0 0.0
2016-May-24 18:24N 22°28' E 113°54'0 0.0
2016-May-24 17:24N 22°28' E 113°54'0 0.0
2016-May-24 16:30N 22°28' E 113°54'0 0.0
2016-May-24 15:30N 22°28' E 113°54'0 0.0
2016-May-24 14:30N 22°28' E 113°54'0 0.0
2016-May-24 13:30N 22°28' E 113°54'0 0.0
2016-May-24 12:30N 22°28' E 113°54'0 0.0
2016-May-24 11:24N 22°28' E 113°54'0 0.0
2016-May-24 10:30N 22°28' E 113°54'0 0.0
2016-May-24 09:30N 22°28' E 113°54'0 0.0
2016-May-24 08:30N 22°28' E 113°54'0 0.0
2016-May-24 07:24N 22°28' E 113°54'0 0.0
2016-May-24 06:30N 22°28' E 113°54'10 3.1
2016-May-24 03:09N 22°21' E 114°03'5 7.7
2016-May-24 02:33N 22°18' E 114°06'11 7.2
2016-May-24 01:03N 22°09' E 114°13'5 5.7
2016-May-24 00:15N 22°08' E 114°18'11 0.5
2016-May-23 00:26N 21°59' E 114°24'  
2016-May-17 22:29N 01°16' E 104°01'2 0.8
2016-May-17 20:32N 01°17' E 104°00'0 0.1
2016-May-17 19:17N 01°17' E 104°00'0 0.0
2016-May-17 18:26N 01°17' E 104°00'0 0.0
2016-May-17 17:05N 01°17' E 104°00'0 0.2
2016-May-17 16:23N 01°17' E 104°00'0 0.0
2016-May-17 12:17N 01°17' E 104°00'0 0.0
2016-May-17 10:32N 01°17' E 104°00'  
Track history (hours):
 
Tides and Currents Weather Stations Pressure Air Temp Water Temp Dewpoint Dewpoint Depression Visibility Wind Speed Wind Dir Waves Ship Positions

Medi Baltimore

Last reported at 2016-May-27 08:33 UTC. Time now 2016-Jul-29 04:00 UTC.
Position N 22°07' E 114°19'.
Warning: this ship's position is months out of date.

Length 225 m; draft 6.5 m.

Type: Cargo ship. MMSI: 247255300.

Date/timePositionNaut miles runAvg speedWind from/ knotsBaromVisibWave heightAir tempDewpointWater temp
2016-May-27 08:33N 22°07' E 114°19'1510.4
2016-May-27 07:04N 22°17' E 114°06'610.0
2016-May-27 06:30N 22°21' E 114°03'9 9.8
2016-May-27 05:33N 22°24' E 113°53'4 3.9
2016-May-27 04:33N 22°28' E 113°54'0 0.0
2016-May-25 15:30N 22°28' E 113°54'0 0.0
2016-May-25 14:31N 22°28' E 113°54'0 0.0
2016-May-25 13:30N 22°28' E 113°54'0 0.0
2016-May-25 12:19N 22°28' E 113°54'0 0.0
2016-May-25 11:25N 22°28' E 113°54'0 0.0
2016-May-25 10:30N 22°28' E 113°54'0 0.0
2016-May-25 09:18N 22°28' E 113°54'0 0.0
2016-May-25 08:31N 22°28' E 113°54'0 0.0
2016-May-25 07:31N 22°28' E 113°54'0 0.0
2016-May-25 06:30N 22°28' E 113°54'0 0.0
2016-May-25 05:30N 22°28' E 113°54'0 0.0
2016-May-25 04:30N 22°28' E 113°54'0 0.0
2016-May-25 03:31N 22°28' E 113°54'0 0.0
2016-May-25 02:25N 22°28' E 113°54'0 0.0
2016-May-25 01:18N 22°28' E 113°54'0 0.0
2016-May-24 23:30N 22°28' E 113°54'0 0.0
2016-May-24 22:30N 22°28' E 113°54'0 0.0
2016-May-24 21:24N 22°28' E 113°54'0 0.0
2016-May-24 20:30N 22°28' E 113°54'0 0.0
2016-May-24 19:24N 22°28' E 113°54'0 0.0
2016-May-24 18:24N 22°28' E 113°54'0 0.0
2016-May-24 17:24N 22°28' E 113°54'0 0.0
2016-May-24 16:30N 22°28' E 113°54'0 0.0
2016-May-24 15:30N 22°28' E 113°54'0 0.0
2016-May-24 14:30N 22°28' E 113°54'0 0.0
2016-May-24 13:30N 22°28' E 113°54'0 0.0
2016-May-24 12:30N 22°28' E 113°54'0 0.0
2016-May-24 11:24N 22°28' E 113°54'0 0.0
2016-May-24 10:30N 22°28' E 113°54'0 0.0
2016-May-24 09:30N 22°28' E 113°54'0 0.0
2016-May-24 08:30N 22°28' E 113°54'0 0.0
2016-May-24 07:24N 22°28' E 113°54'0 0.0
2016-May-24 06:30N 22°28' E 113°54'10 3.1
2016-May-24 03:09N 22°21' E 114°03'5 7.7
2016-May-24 02:33N 22°18' E 114°06'11 7.2
2016-May-24 01:03N 22°09' E 114°13'5 5.7
2016-May-24 00:15N 22°08' E 114°18'11 0.5
2016-May-23 00:26N 21°59' E 114°24'  
2016-May-17 22:29N 01°16' E 104°01'2 0.8
2016-May-17 20:32N 01°17' E 104°00'0 0.1
2016-May-17 19:17N 01°17' E 104°00'0 0.0
2016-May-17 18:26N 01°17' E 104°00'0 0.0
2016-May-17 17:05N 01°17' E 104°00'0 0.2
2016-May-17 16:23N 01°17' E 104°00'0 0.0
2016-May-17 12:17N 01°17' E 104°00'0 0.0
2016-May-17 10:32N 01°17' E 104°00'  

Dump ship's entire track history